MAS1194 WMKN-WMKK
Flight info
| Callsign | MAS1194 |
|---|---|
| Flight time | 0h 39m |
| Altitude | 26000 |
| Route | LASOB1B LASOB Y346 PULIP PULIP3J |
| Aircraft | B738/M-SDE2E3FGHIRWXY/LB1 |
Departure
| Time | 2026-05-01 14:11 |
|---|---|
| Airport | Sultan Mahmud Airport (WMKN) |
Arrival
| Time | 2026-05-01 14:51 |
|---|---|
| Airport | Kuala Lumpur International Airport (WMKK) |
| Time | Latitude | Longitude | Altitude | Speed | Heading |
|---|---|---|---|---|---|
| 2026-05-01 13:44 | 5.37903 | 103.10404 | 53 ft | 0 kts | 135° |
| 2026-05-01 14:01 | 5.37905 | 103.10401 | 53 ft | 3 kts | 135° |
| 2026-05-01 14:01 | 5.37925 | 103.10383 | 45 ft | 4 kts | 141° |
| 2026-05-01 14:02 | 5.37947 | 103.10367 | 49 ft | 4 kts | 146° |
| 2026-05-01 14:02 | 5.37969 | 103.10352 | 50 ft | 4 kts | 148° |
| 2026-05-01 14:02 | 5.37991 | 103.10337 | 50 ft | 4 kts | 133° |
| 2026-05-01 14:02 | 5.38000 | 103.10322 | 48 ft | 2 kts | 63° |
| 2026-05-01 14:03 | 5.38000 | 103.10320 | 48 ft | 0 kts | 60° |
| 2026-05-01 14:05 | 5.38007 | 103.10330 | 46 ft | 4 kts | 52° |
| 2026-05-01 14:06 | 5.38043 | 103.10368 | 53 ft | 9 kts | 45° |
| 2026-05-01 14:06 | 5.38097 | 103.10400 | 53 ft | 9 kts | 7° |
| 2026-05-01 14:06 | 5.38150 | 103.10372 | 52 ft | 9 kts | 316° |
| 2026-05-01 14:06 | 5.38194 | 103.10330 | 52 ft | 9 kts | 316° |
| 2026-05-01 14:07 | 5.38247 | 103.10318 | 52 ft | 9 kts | 26° |
| 2026-05-01 14:07 | 5.38296 | 103.10362 | 52 ft | 10 kts | 44° |
| 2026-05-01 14:07 | 5.38351 | 103.10416 | 51 ft | 12 kts | 44° |
| 2026-05-01 14:08 | 5.38490 | 103.10551 | 53 ft | 16 kts | 44° |
| 2026-05-01 14:08 | 5.38572 | 103.10632 | 54 ft | 17 kts | 45° |
| 2026-05-01 14:08 | 5.38660 | 103.10720 | 53 ft | 18 kts | 45° |
| 2026-05-01 14:08 | 5.38750 | 103.10808 | 52 ft | 18 kts | 45° |
| 2026-05-01 14:09 | 5.38836 | 103.10894 | 52 ft | 17 kts | 44° |
| 2026-05-01 14:09 | 5.38921 | 103.10976 | 51 ft | 17 kts | 45° |
| 2026-05-01 14:09 | 5.39001 | 103.11056 | 51 ft | 16 kts | 44° |
| 2026-05-01 14:09 | 5.39083 | 103.11127 | 50 ft | 15 kts | 36° |
| 2026-05-01 14:10 | 5.39161 | 103.11169 | 52 ft | 7 kts | 31° |
| 2026-05-01 14:10 | 5.39160 | 103.11200 | 52 ft | 4 kts | 151° |
| 2026-05-01 14:10 | 5.39138 | 103.11190 | 52 ft | 4 kts | 226° |
| 2026-05-01 14:10 | 5.39130 | 103.11183 | 49 ft | 0 kts | 224° |
| 2026-05-01 14:11 | 5.39093 | 103.11146 | 52 ft | 33 kts | 224° |
| 2026-05-01 14:11 | 5.38074 | 103.10144 | 94 ft | 160 kts | 224° |
| 2026-05-01 14:11 | 5.37268 | 103.09317 | 665 ft | 174 kts | 228° |
| 2026-05-01 14:12 | 5.36419 | 103.08404 | 1403 ft | 181 kts | 227° |
| 2026-05-01 14:12 | 5.35573 | 103.07484 | 2270 ft | 183 kts | 233° |
| 2026-05-01 14:12 | 5.34973 | 103.06327 | 2919 ft | 196 kts | 249° |
| 2026-05-01 14:12 | 5.34462 | 103.04958 | 3170 ft | 222 kts | 250° |
| 2026-05-01 14:13 | 5.33914 | 103.03449 | 3573 ft | 236 kts | 250° |
| 2026-05-01 14:13 | 5.33536 | 103.02424 | 3959 ft | 239 kts | 250° |
| 2026-05-01 14:13 | 5.32727 | 103.00282 | 4610 ft | 255 kts | 249° |
| 2026-05-01 14:13 | 5.32072 | 102.98584 | 5203 ft | 266 kts | 249° |
| 2026-05-01 14:14 | 5.31393 | 102.96853 | 6108 ft | 267 kts | 249° |
| 2026-05-01 14:14 | 5.30707 | 102.95117 | 6983 ft | 270 kts | 249° |
| 2026-05-01 14:14 | 5.30003 | 102.93352 | 7807 ft | 274 kts | 248° |
| 2026-05-01 14:14 | 5.29289 | 102.91569 | 8627 ft | 277 kts | 248° |
| 2026-05-01 14:15 | 5.28564 | 102.89761 | 9436 ft | 281 kts | 248° |
| 2026-05-01 14:15 | 5.27830 | 102.87938 | 10219 ft | 284 kts | 248° |
| 2026-05-01 14:15 | 5.27065 | 102.86038 | 10557 ft | 306 kts | 248° |
| 2026-05-01 14:15 | 5.26233 | 102.83974 | 10762 ft | 330 kts | 248° |
| 2026-05-01 14:16 | 5.25345 | 102.81772 | 11118 ft | 347 kts | 248° |
| 2026-05-01 14:16 | 5.24432 | 102.79509 | 11712 ft | 355 kts | 248° |
| 2026-05-01 14:16 | 5.23512 | 102.77230 | 12444 ft | 358 kts | 248° |
| 2026-05-01 14:16 | 5.22573 | 102.74903 | 13153 ft | 362 kts | 248° |
| 2026-05-01 14:17 | 5.21622 | 102.72549 | 13821 ft | 366 kts | 248° |
| 2026-05-01 14:17 | 5.20365 | 102.70313 | 14462 ft | 372 kts | 230° |
| 2026-05-01 14:17 | 5.18418 | 102.68618 | 15168 ft | 374 kts | 211° |
| 2026-05-01 14:17 | 5.16124 | 102.67358 | 15853 ft | 377 kts | 208° |
| 2026-05-01 14:18 | 5.13772 | 102.66155 | 16427 ft | 383 kts | 207° |
| 2026-05-01 14:18 | 5.11377 | 102.64942 | 17010 ft | 387 kts | 207° |
| 2026-05-01 14:18 | 5.08974 | 102.63714 | 17680 ft | 388 kts | 207° |
| 2026-05-01 14:18 | 5.07383 | 102.62891 | 18093 ft | 390 kts | 208° |
| 2026-05-01 14:19 | 5.04140 | 102.61199 | 18854 ft | 395 kts | 208° |
| 2026-05-01 14:19 | 5.01693 | 102.59913 | 19394 ft | 398 kts | 208° |
| 2026-05-01 14:19 | 4.99225 | 102.58615 | 19904 ft | 403 kts | 208° |
| 2026-05-01 14:19 | 4.96732 | 102.57303 | 20448 ft | 405 kts | 208° |
| 2026-05-01 14:20 | 4.94233 | 102.55991 | 20962 ft | 408 kts | 208° |
| 2026-05-01 14:20 | 4.89144 | 102.53325 | 21868 ft | 416 kts | 208° |
| 2026-05-01 14:20 | 4.86570 | 102.51980 | 22374 ft | 418 kts | 208° |
| 2026-05-01 14:21 | 4.83986 | 102.50628 | 22861 ft | 420 kts | 208° |
| 2026-05-01 14:21 | 4.81419 | 102.49285 | 23321 ft | 422 kts | 208° |
| 2026-05-01 14:21 | 4.78806 | 102.47918 | 23753 ft | 425 kts | 208° |
| 2026-05-01 14:22 | 4.73490 | 102.45136 | 24546 ft | 432 kts | 208° |
| 2026-05-01 14:22 | 4.70817 | 102.43738 | 24866 ft | 436 kts | 208° |
| 2026-05-01 14:22 | 4.68150 | 102.42342 | 25211 ft | 440 kts | 208° |
| 2026-05-01 14:22 | 4.65434 | 102.40922 | 25617 ft | 441 kts | 208° |
| 2026-05-01 14:23 | 4.62717 | 102.39500 | 25994 ft | 438 kts | 208° |
| 2026-05-01 14:23 | 4.60025 | 102.38093 | 25987 ft | 437 kts | 208° |
| 2026-05-01 14:23 | 4.57323 | 102.36679 | 26002 ft | 439 kts | 208° |
| 2026-05-01 14:23 | 4.54614 | 102.35262 | 25998 ft | 439 kts | 208° |
| 2026-05-01 14:24 | 4.51902 | 102.33844 | 26007 ft | 440 kts | 208° |
| 2026-05-01 14:24 | 4.49182 | 102.32422 | 26005 ft | 441 kts | 208° |
| 2026-05-01 14:24 | 4.46461 | 102.30999 | 25999 ft | 442 kts | 208° |
| 2026-05-01 14:24 | 4.43732 | 102.29573 | 26006 ft | 442 kts | 208° |
| 2026-05-01 14:25 | 4.41009 | 102.28149 | 26000 ft | 441 kts | 208° |
| 2026-05-01 14:25 | 4.38290 | 102.26728 | 25998 ft | 441 kts | 208° |
| 2026-05-01 14:25 | 4.35574 | 102.25308 | 26000 ft | 440 kts | 208° |
| 2026-05-01 14:25 | 4.32871 | 102.23896 | 26000 ft | 439 kts | 208° |
| 2026-05-01 14:26 | 4.30162 | 102.22480 | 25999 ft | 438 kts | 208° |
| 2026-05-01 14:26 | 4.24760 | 102.19658 | 26002 ft | 437 kts | 208° |
| 2026-05-01 14:26 | 4.22083 | 102.18259 | 26003 ft | 437 kts | 208° |
| 2026-05-01 14:27 | 4.19376 | 102.16844 | 25999 ft | 436 kts | 208° |
| 2026-05-01 14:27 | 4.16681 | 102.15436 | 26002 ft | 436 kts | 208° |
| 2026-05-01 14:27 | 4.13991 | 102.14031 | 26004 ft | 436 kts | 208° |
| 2026-05-01 14:28 | 4.08597 | 102.11214 | 26003 ft | 437 kts | 208° |
| 2026-05-01 14:28 | 4.05897 | 102.09803 | 26003 ft | 438 kts | 208° |
| 2026-05-01 14:28 | 4.03194 | 102.08392 | 26001 ft | 438 kts | 208° |
| 2026-05-01 14:28 | 4.00490 | 102.06980 | 26000 ft | 438 kts | 208° |
| 2026-05-01 14:29 | 3.97742 | 102.05750 | 25990 ft | 439 kts | 199° |
| 2026-05-01 14:29 | 3.94770 | 102.05011 | 26003 ft | 440 kts | 190° |
| 2026-05-01 14:30 | 3.85662 | 102.03560 | 26001 ft | 444 kts | 189° |
| 2026-05-01 14:30 | 3.82664 | 102.03083 | 25985 ft | 431 kts | 189° |
| 2026-05-01 14:30 | 3.79730 | 102.02609 | 25989 ft | 420 kts | 189° |
| 2026-05-01 14:31 | 3.74047 | 102.01662 | 25997 ft | 412 kts | 190° |
| 2026-05-01 14:31 | 3.71218 | 102.01182 | 25712 ft | 413 kts | 190° |
| 2026-05-01 14:31 | 3.68403 | 102.00706 | 25339 ft | 407 kts | 190° |
| 2026-05-01 14:31 | 3.65614 | 102.00235 | 24880 ft | 404 kts | 190° |
| 2026-05-01 14:32 | 3.62887 | 101.99777 | 24438 ft | 400 kts | 190° |
| 2026-05-01 14:32 | 3.60131 | 101.99314 | 23975 ft | 397 kts | 190° |
| 2026-05-01 14:32 | 3.57419 | 101.98859 | 23516 ft | 394 kts | 190° |
| 2026-05-01 14:32 | 3.54728 | 101.98408 | 23061 ft | 391 kts | 190° |
| 2026-05-01 14:33 | 3.52054 | 101.97959 | 22606 ft | 388 kts | 190° |
| 2026-05-01 14:33 | 3.49397 | 101.97513 | 22152 ft | 385 kts | 190° |
| 2026-05-01 14:33 | 3.46765 | 101.97072 | 21697 ft | 383 kts | 190° |
| 2026-05-01 14:33 | 3.44151 | 101.96633 | 21249 ft | 380 kts | 190° |
| 2026-05-01 14:34 | 3.41544 | 101.96196 | 20798 ft | 378 kts | 190° |
| 2026-05-01 14:34 | 3.38960 | 101.95763 | 20354 ft | 376 kts | 190° |
| 2026-05-01 14:34 | 3.36393 | 101.95332 | 19914 ft | 373 kts | 190° |
| 2026-05-01 14:34 | 3.33843 | 101.94905 | 19466 ft | 371 kts | 190° |
| 2026-05-01 14:35 | 3.31332 | 101.94484 | 19033 ft | 369 kts | 190° |
| 2026-05-01 14:35 | 3.28776 | 101.94055 | 18587 ft | 367 kts | 190° |
| 2026-05-01 14:35 | 3.26294 | 101.93639 | 18156 ft | 364 kts | 190° |
| 2026-05-01 14:35 | 3.23845 | 101.93228 | 17731 ft | 362 kts | 190° |
| 2026-05-01 14:36 | 3.21368 | 101.92813 | 17310 ft | 360 kts | 190° |
| 2026-05-01 14:36 | 3.18905 | 101.92400 | 16882 ft | 358 kts | 190° |
| 2026-05-01 14:36 | 3.16455 | 101.91989 | 16462 ft | 356 kts | 190° |
| 2026-05-01 14:36 | 3.14020 | 101.91588 | 16044 ft | 353 kts | 188° |
| 2026-05-01 14:37 | 3.11590 | 101.91528 | 15416 ft | 349 kts | 176° |
| 2026-05-01 14:37 | 3.09174 | 101.91750 | 14671 ft | 348 kts | 175° |
| 2026-05-01 14:37 | 3.06774 | 101.91990 | 13956 ft | 346 kts | 175° |
| 2026-05-01 14:37 | 3.04389 | 101.92229 | 13282 ft | 343 kts | 175° |
| 2026-05-01 14:38 | 3.02032 | 101.92460 | 12638 ft | 339 kts | 175° |
| 2026-05-01 14:38 | 2.99685 | 101.92683 | 11965 ft | 337 kts | 175° |
| 2026-05-01 14:38 | 2.97364 | 101.92900 | 11330 ft | 333 kts | 175° |
| 2026-05-01 14:38 | 2.95084 | 101.93111 | 10947 ft | 322 kts | 175° |
| 2026-05-01 14:39 | 2.92910 | 101.93310 | 10794 ft | 305 kts | 175° |
| 2026-05-01 14:39 | 2.90827 | 101.93500 | 10473 ft | 295 kts | 175° |
| 2026-05-01 14:39 | 2.89486 | 101.93622 | 10286 ft | 288 kts | 175° |
| 2026-05-01 14:39 | 2.86884 | 101.93859 | 9958 ft | 276 kts | 175° |
| 2026-05-01 14:40 | 2.85616 | 101.93974 | 9771 ft | 275 kts | 175° |
| 2026-05-01 14:40 | 2.83712 | 101.94146 | 9489 ft | 274 kts | 175° |
| 2026-05-01 14:40 | 2.81818 | 101.94318 | 9203 ft | 273 kts | 175° |
| 2026-05-01 14:40 | 2.79931 | 101.94489 | 8922 ft | 272 kts | 175° |
| 2026-05-01 14:41 | 2.78050 | 101.94659 | 8642 ft | 271 kts | 175° |
| 2026-05-01 14:41 | 2.76205 | 101.94827 | 8358 ft | 270 kts | 175° |
| 2026-05-01 14:41 | 2.74313 | 101.94998 | 8077 ft | 269 kts | 175° |
| 2026-05-01 14:41 | 2.72452 | 101.95167 | 7781 ft | 268 kts | 175° |
| 2026-05-01 14:42 | 2.70598 | 101.95179 | 7504 ft | 266 kts | 186° |
| 2026-05-01 14:42 | 2.68753 | 101.95194 | 7235 ft | 264 kts | 182° |
| 2026-05-01 14:42 | 2.66968 | 101.94843 | 6966 ft | 261 kts | 198° |
| 2026-05-01 14:42 | 2.65285 | 101.94292 | 6694 ft | 255 kts | 199° |
| 2026-05-01 14:43 | 2.63623 | 101.93723 | 6461 ft | 249 kts | 200° |
| 2026-05-01 14:43 | 2.62013 | 101.93168 | 6269 ft | 240 kts | 200° |
| 2026-05-01 14:43 | 2.60448 | 101.92628 | 6080 ft | 238 kts | 200° |
| 2026-05-01 14:43 | 2.58886 | 101.92088 | 5921 ft | 239 kts | 200° |
| 2026-05-01 14:44 | 2.57266 | 101.91527 | 5797 ft | 254 kts | 200° |
| 2026-05-01 14:44 | 2.54137 | 101.89964 | 5532 ft | 244 kts | 231° |
| 2026-05-01 14:44 | 2.53446 | 101.88496 | 5409 ft | 227 kts | 263° |
| 2026-05-01 14:45 | 2.53609 | 101.87027 | 5331 ft | 208 kts | 287° |
| 2026-05-01 14:45 | 2.54533 | 101.84436 | 4769 ft | 194 kts | 290° |
| 2026-05-01 14:45 | 2.55155 | 101.83229 | 4360 ft | 194 kts | 310° |
| 2026-05-01 14:46 | 2.56060 | 101.82257 | 4003 ft | 192 kts | 315° |
| 2026-05-01 14:46 | 2.58095 | 101.80754 | 3557 ft | 178 kts | 325° |
| 2026-05-01 14:46 | 2.59121 | 101.80063 | 3210 ft | 177 kts | 325° |
| 2026-05-01 14:47 | 2.60141 | 101.79376 | 2882 ft | 176 kts | 325° |
| 2026-05-01 14:47 | 2.61152 | 101.78694 | 2565 ft | 174 kts | 325° |
| 2026-05-01 14:47 | 2.62143 | 101.78035 | 2319 ft | 169 kts | 324° |
| 2026-05-01 14:48 | 2.64111 | 101.76716 | 1924 ft | 177 kts | 324° |
| 2026-05-01 14:48 | 2.65077 | 101.76045 | 1791 ft | 161 kts | 324° |
| 2026-05-01 14:48 | 2.66841 | 101.74808 | 1364 ft | 150 kts | 323° |
| 2026-05-01 14:49 | 2.68406 | 101.73777 | 844 ft | 136 kts | 324° |
| 2026-05-01 14:49 | 2.69978 | 101.72714 | 436 ft | 135 kts | 324° |
| 2026-05-01 14:50 | 2.71262 | 101.71849 | 132 ft | 130 kts | 325° |
| 2026-05-01 14:50 | 2.72693 | 101.70888 | 53 ft | 69 kts | 326° |
| 2026-05-01 14:51 | 2.72958 | 101.70715 | 54 ft | 13 kts | 339° |
| 2026-05-01 14:51 | 2.73137 | 101.70694 | 58 ft | 15 kts | 355° |
| 2026-05-01 14:52 | 2.73242 | 101.70687 | 49 ft | 3 kts | 358° |
| 2026-05-01 14:52 | 2.73262 | 101.70686 | 52 ft | 4 kts | 358° |
| 2026-05-01 14:52 | 2.73364 | 101.70665 | 54 ft | 13 kts | 336° |
| 2026-05-01 14:53 | 2.73445 | 101.70616 | 56 ft | 14 kts | 326° |
| 2026-05-01 14:53 | 2.73526 | 101.70562 | 54 ft | 14 kts | 326° |
| 2026-05-01 14:53 | 2.73605 | 101.70510 | 57 ft | 14 kts | 327° |
| 2026-05-01 14:53 | 2.73691 | 101.70452 | 55 ft | 16 kts | 326° |
| 2026-05-01 14:54 | 2.73785 | 101.70389 | 53 ft | 16 kts | 326° |
| 2026-05-01 14:54 | 2.73877 | 101.70327 | 49 ft | 16 kts | 326° |
| 2026-05-01 14:54 | 2.73965 | 101.70268 | 53 ft | 15 kts | 326° |
| 2026-05-01 14:54 | 2.74050 | 101.70212 | 50 ft | 14 kts | 326° |
| 2026-05-01 14:55 | 2.74130 | 101.70157 | 58 ft | 14 kts | 326° |
| 2026-05-01 14:55 | 2.74207 | 101.70106 | 56 ft | 13 kts | 326° |
| 2026-05-01 14:55 | 2.74282 | 101.70056 | 53 ft | 13 kts | 326° |
| 2026-05-01 14:55 | 2.74354 | 101.70007 | 51 ft | 12 kts | 326° |
| 2026-05-01 14:56 | 2.74420 | 101.69962 | 60 ft | 9 kts | 327° |
| 2026-05-01 14:56 | 2.74478 | 101.69955 | 60 ft | 9 kts | 32° |
| 2026-05-01 14:56 | 2.74515 | 101.70005 | 55 ft | 9 kts | 56° |
| 2026-05-01 14:56 | 2.74552 | 101.70059 | 55 ft | 10 kts | 56° |
| 2026-05-01 14:57 | 2.74589 | 101.70114 | 60 ft | 10 kts | 56° |
| 2026-05-01 14:57 | 2.74688 | 101.70260 | 62 ft | 16 kts | 56° |
| 2026-05-01 14:57 | 2.74756 | 101.70359 | 67 ft | 18 kts | 56° |
| 2026-05-01 14:58 | 2.74823 | 101.70459 | 67 ft | 17 kts | 56° |
| 2026-05-01 14:58 | 2.74889 | 101.70556 | 68 ft | 16 kts | 56° |
| 2026-05-01 14:58 | 2.74951 | 101.70650 | 66 ft | 16 kts | 56° |
| 2026-05-01 14:58 | 2.75012 | 101.70738 | 68 ft | 14 kts | 56° |
| 2026-05-01 14:59 | 2.75054 | 101.70783 | 69 ft | 9 kts | 25° |
| 2026-05-01 14:59 | 2.75107 | 101.70764 | 64 ft | 8 kts | 326° |
| 2026-05-01 14:59 | 2.75157 | 101.70732 | 67 ft | 10 kts | 328° |
| 2026-05-01 14:59 | 2.75224 | 101.70737 | 67 ft | 11 kts | 40° |
| 2026-05-01 15:00 | 2.75296 | 101.70821 | 72 ft | 6 kts | 7° |
| 2026-05-01 15:00 | 2.75333 | 101.70803 | 65 ft | 6 kts | 328° |
| 2026-05-01 15:00 | 2.75352 | 101.70791 | 67 ft | 2 kts | 326° |
| 2026-05-01 15:01 | 2.75362 | 101.70784 | 65 ft | 1 kts | 326° |
| 2026-05-01 15:01 | 2.75363 | 101.70784 | 66 ft | 0 kts | 326° |